| time (UTC) | temp F | wind direction | speed MPH | gust MPH | rain 1hr in | rain 24hr in | rain mn in | humidity % | barometer mb |
| 20260507225004 | 67 | 297 | 0.0 | 4.0 | 0.00 | 0.42 | 0.31 | 53 | 1015.2 |
| 20260507224510 | 67 | 29 | 1.0 | 4.0 | 0.00 | 0.43 | 0.31 | 53 | 1015.2 |
| 20260507224006 | 67 | 294 | 1.0 | 5.0 | 0.00 | 0.43 | 0.31 | 53 | 1015.2 |
| 20260507223507 | 67 | 288 | 1.0 | 5.0 | 0.00 | 0.43 | 0.31 | 54 | 1015.3 |
| 20260507223011 | 67 | 4 | 0.0 | 3.0 | 0.00 | 0.43 | 0.31 | 55 | 1015.3 |
| 20260507222503 | 67 | 310 | 0.0 | 3.0 | 0.00 | 0.44 | 0.31 | 53 | 1015.2 |
| 20260507221517 | 67 | 276 | 0.0 | 6.0 | 0.00 | 0.47 | 0.31 | 52 | 1015.1 |
| 20260507221006 | 68 | 297 | 1.0 | 6.0 | 0.00 | 0.47 | 0.31 | 53 | 1015.1 |
| 20260507220504 | 68 | 282 | 1.0 | 4.0 | 0.00 | 0.47 | 0.31 | 51 | 1015.2 |
| 20260507215512 | 68 | 20 | 1.0 | 5.0 | 0.00 | 0.47 | 0.31 | 52 | 1015.1 |
| 20260507215005 | 68 | 271 | 1.0 | 5.0 | 0.00 | 0.47 | 0.31 | 52 | 1015.0 |
| 20260507214517 | 68 | 301 | 0.0 | 4.0 | 0.00 | 0.47 | 0.31 | 53 | 1015.0 |
| 20260507214004 | 68 | 210 | 0.0 | 4.0 | 0.00 | 0.47 | 0.31 | 53 | 1015.0 |
| 20260507213504 | 68 | 280 | 0.0 | 5.0 | 0.00 | 0.47 | 0.31 | 53 | 1015.0 |
| 20260507213017 | 68 | 44 | 1.0 | 6.0 | 0.00 | 0.50 | 0.31 | 51 | 1015.0 |
| 20260507212506 | 68 | 258 | 0.0 | 6.0 | 0.00 | 0.50 | 0.31 | 56 | 1015.1 |
| 20260507212010 | 67 | 32 | 1.0 | 5.0 | 0.00 | 0.50 | 0.31 | 52 | 1015.1 |
| 20260507211005 | 68 | 304 | 1.0 | 6.0 | 0.00 | 0.50 | 0.31 | 52 | 1015.0 |
| 20260507210014 | 69 | 277 | 0.0 | 4.0 | 0.00 | 0.50 | 0.31 | 53 | 1015.1 |
| 20260507205507 | 68 | 356 | 1.0 | 4.0 | 0.00 | 0.51 | 0.31 | 52 | 1015.0 |
| 20260507205007 | 69 | 287 | 1.0 | 4.0 | 0.00 | 0.57 | 0.31 | 50 | 1015.2 |
| 20260507204515 | 69 | 279 | 0.0 | 8.0 | 0.00 | 0.61 | 0.31 | 54 | 1015.1 |
| 20260507204005 | 68 | 61 | 1.0 | 8.0 | 0.00 | 0.63 | 0.31 | 53 | 1015.1 |
| 20260507203504 | 68 | 267 | 1.0 | 7.0 | 0.00 | 0.67 | 0.31 | 54 | 1015.0 |
| 20260507203029 | 67 | 11 | 4.0 | 7.0 | 0.00 | 0.68 | 0.31 | 52 | 1015.1 |
| 20260507202506 | 67 | 268 | 3.0 | 5.0 | 0.00 | 0.73 | 0.31 | 55 | 1015.2 |
| 20260507201518 | 68 | 288 | 2.0 | 6.0 | 0.00 | 0.82 | 0.31 | 53 | 1015.2 |
| 20260507201015 | 68 | 283 | 2.0 | 10.0 | 0.00 | 0.98 | 0.31 | 56 | 1015.2 |
| 20260507200504 | 68 | 276 | 3.0 | 10.0 | 0.00 | 1.05 | 0.31 | 53 | 1015.2 |
| 20260507200044 | 68 | 276 | 0.0 | 5.0 | 0.00 | 1.08 | 0.31 | 60 | 1015.1 |
| 20260507194006 | 68 | 307 | 0.0 | 6.0 | 0.00 | 1.13 | 0.31 | 57 | 1015.0 |
| 20260507193507 | 68 | 300 | 2.0 | 7.0 | 0.00 | 1.13 | 0.31 | 53 | 1015.1 |
| 20260507193034 | 69 | 307 | 2.0 | 8.0 | 0.00 | 1.13 | 0.31 | 55 | 1015.2 |
| 20260507192509 | 68 | 310 | 3.0 | 8.0 | 0.00 | 1.13 | 0.31 | 56 | 1015.1 |
| 20260507192008 | 68 | 259 | 2.0 | 4.0 | 0.00 | 1.13 | 0.31 | 55 | 1014.9 |
| 20260507191521 | 69 | 279 | 1.0 | 8.0 | 0.00 | 1.13 | 0.31 | 54 | 1014.9 |
| 20260507191006 | 68 | 280 | 0.0 | 10.0 | 0.00 | 1.16 | 0.31 | 57 | 1015.0 |
| 20260507190507 | 68 | 23 | 5.0 | 10.0 | 0.00 | 1.16 | 0.31 | 53 | 1015.0 |
| 20260507190031 | 69 | 265 | 0.0 | 6.0 | 0.00 | 1.16 | 0.31 | 57 | 1014.9 |
| 20260507185506 | 68 | 283 | 2.0 | 6.0 | 0.00 | 1.17 | 0.31 | 53 | 1014.9 |
| 20260507185005 | 68 | 265 | 2.0 | 6.0 | 0.00 | 1.19 | 0.31 | 55 | 1015.1 |
| 20260507184522 | 67 | 289 | 0.0 | 11.0 | 0.00 | 1.19 | 0.31 | 57 | 1015.2 |
| 20260507184009 | 67 | 89 | 2.0 | 11.0 | 0.00 | 1.19 | 0.31 | 56 | 1015.1 |
| 20260507183505 | 67 | 272 | 0.0 | 8.0 | 0.00 | 1.19 | 0.31 | 58 | 1015.2 |
| 20260507182507 | 67 | 33 | 2.0 | 8.0 | 0.00 | 1.20 | 0.31 | 57 | 1015.0 |
| 20260507182008 | 67 | 276 | 1.0 | 7.0 | 0.00 | 1.20 | 0.31 | 58 | 1015.2 |
| 20260507181516 | 67 | 274 | 4.0 | 8.0 | 0.00 | 1.21 | 0.31 | 56 | 1015.3 |
| 20260507181007 | 67 | 1 | 1.0 | 8.0 | 0.00 | 1.23 | 0.31 | 58 | 1015.3 |
| 20260507180507 | 67 | 287 | 0.0 | 4.0 | 0.00 | 1.27 | 0.31 | 60 | 1015.4 |
| 20260507180016 | 66 | 285 | 2.0 | 7.0 | 0.00 | 1.34 | 0.31 | 61 | 1015.6 |
| 20260507175507 | 66 | 278 | 2.0 | 7.0 | 0.00 | 1.37 | 0.31 | 57 | 1015.6 |
| 20260507175004 | 66 | 297 | 2.0 | 6.0 | 0.00 | 1.39 | 0.31 | 59 | 1015.6 |
| 20260507174517 | 66 | 35 | 1.0 | 6.0 | 0.00 | 1.40 | 0.31 | 58 | 1015.7 |
| 20260507174007 | 66 | 55 | 2.0 | 6.0 | 0.00 | 1.41 | 0.31 | 58 | 1015.7 |
| 20260507173508 | 66 | 315 | 1.0 | 4.0 | 0.00 | 1.43 | 0.31 | 59 | 1015.8 |
| 20260507173015 | 65 | 283 | 2.0 | 5.0 | 0.00 | 1.45 | 0.31 | 60 | 1015.8 |
| 20260507172505 | 65 | 314 | 1.0 | 7.0 | 0.00 | 1.47 | 0.31 | 61 | 1015.9 |
| 20260507172009 | 64 | 271 | 2.0 | 7.0 | 0.00 | 1.60 | 0.31 | 61 | 1016.0 |
| 20260507171522 | 65 | 271 | 1.0 | 6.0 | 0.00 | 1.61 | 0.31 | 61 | 1016.1 |
| 20260507171004 | 64 | 278 | 2.0 | 6.0 | 0.00 | 1.61 | 0.31 | 63 | 1016.0 |
| 20260507170508 | 64 | 295 | 3.0 | 6.0 | 0.00 | 1.61 | 0.31 | 60 | 1015.9 |
| 20260507170022 | 63 | 291 | 2.0 | 8.0 | 0.00 | 1.61 | 0.31 | 62 | 1015.9 |
| 20260507165502 | 63 | 304 | 4.0 | 8.0 | 0.00 | 1.63 | 0.31 | 62 | 1016.0 |
| 20260507164518 | 63 | 8 | 1.0 | 10.0 | 0.00 | 1.63 | 0.31 | 64 | 1016.1 |
| 20260507164014 | 63 | 292 | 3.0 | 10.0 | 0.00 | 1.63 | 0.31 | 63 | 1016.1 |
| 20260507163504 | 62 | 281 | 0.0 | 10.0 | 0.00 | 1.63 | 0.31 | 67 | 1016.1 |
| 20260507163020 | 62 | 294 | 2.0 | 10.0 | 0.00 | 1.63 | 0.31 | 66 | 1016.3 |
| 20260507162004 | 62 | 11 | 1.0 | 3.0 | 0.00 | 1.63 | 0.31 | 68 | 1016.1 |
| 20260507161518 | 61 | 11 | 1.0 | 7.0 | 0.00 | 1.63 | 0.31 | 70 | 1016.0 |
| 20260507161007 | 61 | 274 | 2.0 | 7.0 | 0.00 | 1.63 | 0.31 | 69 | 1016.0 |
| 20260507160510 | 61 | 335 | 1.0 | 7.0 | 0.00 | 1.63 | 0.31 | 69 | 1016.0 |
| 20260507160013 | 61 | 262 | 1.0 | 7.0 | 0.00 | 1.63 | 0.31 | 73 | 1016.0 |
| 20260507155508 | 60 | 67 | 1.0 | 9.0 | 0.00 | 1.63 | 0.31 | 74 | 1016.1 |
| 20260507155011 | 60 | 305 | 1.0 | 9.0 | 0.00 | 1.63 | 0.31 | 72 | 1016.1 |
| 20260507154528 | 60 | 290 | 1.0 | 7.0 | 0.00 | 1.63 | 0.31 | 72 | 1016.0 |
| 20260507153508 | 59 | 296 | 0.0 | 5.0 | 0.00 | 1.63 | 0.31 | 74 | 1015.9 |
| 20260507153024 | 59 | 1 | 1.0 | 5.0 | 0.00 | 1.63 | 0.31 | 75 | 1016.0 |
| 20260507152504 | 59 | 289 | 0.0 | 5.0 | 0.00 | 1.63 | 0.31 | 76 | 1015.8 |
| 20260507152007 | 58 | 356 | 1.0 | 5.0 | 0.00 | 1.63 | 0.31 | 78 | 1016.0 |
| 20260507151527 | 58 | 268 | 1.0 | 5.0 | 0.00 | 1.63 | 0.31 | 77 | 1016.1 |
| 20260507151011 | 58 | 297 | 1.0 | 5.0 | 0.00 | 1.63 | 0.31 | 78 | 1016.0 |
| 20260507150504 | 58 | 319 | 1.0 | 5.0 | 0.00 | 1.63 | 0.31 | 80 | 1016.0 |
| 20260507150023 | 57 | 25 | 2.0 | 6.0 | 0.00 | 1.63 | 0.31 | 80 | 1015.9 |
| 20260507145509 | 57 | 21 | 0.0 | 6.0 | 0.00 | 1.64 | 0.31 | 84 | 1016.0 |
| 20260507144525 | 56 | 81 | 1.0 | 7.0 | 0.00 | 1.64 | 0.31 | 85 | 1016.0 |
| 20260507144008 | 56 | 30 | 0.0 | 7.0 | 0.00 | 1.64 | 0.31 | 86 | 1016.0 |
| 20260507143507 | 55 | 297 | 1.0 | 5.0 | 0.00 | 1.64 | 0.31 | 89 | 1015.9 |
| 20260507143013 | 55 | 33 | 1.0 | 7.0 | 0.00 | 1.64 | 0.31 | 90 | 1015.9 |
| 20260507142508 | 55 | 332 | 2.0 | 7.0 | 0.00 | 1.64 | 0.31 | 89 | 1015.9 |
| 20260507142013 | 54 | 295 | 1.0 | 5.0 | 0.00 | 1.64 | 0.31 | 91 | 1015.8 |
| 20260507141508 | 54 | 316 | 1.0 | 5.0 | 0.00 | 1.64 | 0.31 | 91 | 1015.8 |
| 20260507141010 | 54 | 13 | 1.0 | 6.0 | 0.00 | 1.64 | 0.31 | 92 | 1015.7 |
| 20260507140507 | 54 | 70 | 0.0 | 6.0 | 0.00 | 1.64 | 0.31 | 93 | 1015.7 |
| 20260507140023 | 54 | 331 | 1.0 | 6.0 | 0.00 | 1.64 | 0.31 | 93 | 1015.6 |
| 20260507135508 | 54 | 285 | 0.0 | 4.0 | 0.00 | 1.64 | 0.31 | 94 | 1015.6 |
| 20260507135005 | 54 | 309 | 1.0 | 4.0 | 0.00 | 1.64 | 0.31 | 93 | 1015.6 |
| 20260507134524 | 54 | 38 | 0.0 | 3.0 | 0.00 | 1.64 | 0.31 | 94 | 1015.5 |
| 20260507134008 | 54 | 15 | 0.0 | 3.0 | 0.00 | 1.64 | 0.31 | 94 | 1015.5 |
| 20260507133022 | 54 | 332 | 1.0 | 8.0 | 0.00 | 1.66 | 0.31 | 95 | 1015.1 |
| 20260507132508 | 54 | 281 | 1.0 | 8.0 | 0.00 | 1.73 | 0.31 | 95 | 1015.0 |
| 20260507132005 | 53 | 315 | 2.0 | 5.0 | 0.00 | 2.03 | 0.31 | 95 | 1014.9 |
| 20260507131525 | 53 | 309 | 1.0 | 7.0 | 0.00 | 2.08 | 0.31 | 95 | 1014.8 |
| 20260507131009 | 54 | 25 | 1.0 | 7.0 | 0.00 | 2.17 | 0.31 | 96 | 1014.7 |
| 20260507130510 | 53 | 306 | 0.0 | 5.0 | 0.00 | 2.19 | 0.31 | 97 | 1014.7 |
| 20260507130016 | 53 | 312 | 0.0 | 5.0 | 0.00 | 2.21 | 0.31 | 96 | 1014.7 |
| 20260507125508 | 53 | 29 | 1.0 | 5.0 | 0.00 | 2.23 | 0.31 | 96 | 1014.7 |
| 20260507125011 | 53 | 281 | 0.0 | 4.0 | 0.00 | 2.24 | 0.31 | 96 | 1014.7 |
| 20260507124514 | 53 | 281 | 0.0 | 3.0 | 0.00 | 2.25 | 0.31 | 97 | 1014.7 |
| 20260507124005 | 53 | 285 | 0.0 | 3.0 | 0.00 | 2.25 | 0.31 | 96 | 1014.9 |
| 20260507123509 | 53 | 289 | 0.0 | 4.0 | 0.00 | 2.25 | 0.31 | 97 | 1014.8 |
| 20260507123027 | 53 | 271 | 0.0 | 4.0 | 0.00 | 2.25 | 0.31 | 97 | 1014.7 |
| 20260507122009 | 53 | 280 | 0.0 | 4.0 | 0.00 | 2.25 | 0.31 | 97 | 1014.5 |
| 20260507121526 | 53 | 319 | 0.0 | 4.0 | 0.00 | 2.25 | 0.31 | 97 | 1014.5 |
| 20260507121008 | 53 | 354 | 0.0 | 2.0 | 0.00 | 2.25 | 0.31 | 97 | 1014.6 |
| 20260507120507 | 53 | 307 | 0.0 | 2.0 | 0.00 | 2.25 | 0.31 | 97 | 1014.5 |
| 20260507120032 | 53 | 279 | 0.0 | 4.0 | 0.00 | 2.25 | 0.31 | 97 | 1014.4 |
| 20260507115509 | 53 | 26 | 0.0 | 4.0 | 0.00 | 2.25 | 0.31 | 97 | 1014.2 |
| 20260507115007 | 53 | 277 | 1.0 | 3.0 | 0.00 | 2.25 | 0.31 | 97 | 1014.1 |
| 20260507114520 | 53 | 301 | 0.0 | 2.0 | 0.00 | 2.25 | 0.31 | 97 | 1014.1 |
| 20260507114008 | 53 | 293 | 0.0 | 2.0 | 0.00 | 2.25 | 0.31 | 97 | 1014.0 |
| 20260507113509 | 53 | 19 | 0.0 | 6.0 | 0.00 | 2.25 | 0.31 | 97 | 1013.9 |
| 20260507113018 | 53 | 304 | 0.0 | 6.0 | 0.00 | 2.25 | 0.31 | 97 | 1013.9 |
| 20260507112509 | 53 | 351 | 0.0 | 4.0 | 0.00 | 2.25 | 0.31 | 97 | 1013.8 |
| 20260507112011 | 53 | 286 | 1.0 | 4.0 | 0.00 | 2.25 | 0.31 | 97 | 1014.2 |
| 20260507111008 | 53 | 338 | 0.0 | 3.0 | 0.00 | 2.25 | 0.31 | 97 | 1013.5 |
| 20260507110509 | 53 | 273 | 0.0 | 3.0 | 0.00 | 2.25 | 0.31 | 97 | 1013.5 |
| 20260507110028 | 53 | 326 | 0.0 | 1.0 | 0.00 | 2.25 | 0.31 | 97 | 1013.5 |
| 20260507105505 | 53 | 320 | 0.0 | 1.0 | 0.00 | 2.25 | 0.31 | 97 | 1013.8 |
| 20260507105009 | 53 | 347 | 0.0 | 3.0 | 0.00 | 2.25 | 0.31 | 97 | 1013.8 |
| 20260507104527 | 53 | 282 | 0.0 | 3.0 | 0.00 | 2.25 | 0.31 | 97 | 1013.5 |
| 20260507104011 | 53 | 328 | 0.0 | 2.0 | 0.01 | 2.25 | 0.31 | 97 | 1013.4 |
| 20260507103507 | 53 | 326 | 0.0 | 2.0 | 0.02 | 2.25 | 0.31 | 97 | 1013.5 |
| 20260507103028 | 53 | 282 | 0.0 | 2.0 | 0.03 | 2.25 | 0.31 | 97 | 1013.8 |
| 20260507102508 | 53 | 351 | 0.0 | 2.0 | 0.03 | 2.25 | 0.31 | 97 | 1013.7 |
| 20260507102008 | 53 | 307 | 0.0 | 1.0 | 0.03 | 2.25 | 0.31 | 97 | 1013.7 |
| 20260507101012 | 53 | 8 | 1.0 | 4.0 | 0.03 | 2.25 | 0.31 | 97 | 1013.5 |
| 20260507100508 | 53 | 289 | 0.0 | 4.0 | 0.03 | 2.25 | 0.31 | 97 | 1013.3 |
| 20260507100030 | 54 | 266 | 0.0 | 3.0 | 0.03 | 2.25 | 0.31 | 97 | 1013.1 |
| 20260507095509 | 54 | 327 | 0.0 | 3.0 | 0.03 | 2.25 | 0.31 | 97 | 1013.0 |
| 20260507095009 | 54 | 310 | 1.0 | 4.0 | 0.03 | 2.25 | 0.31 | 97 | 1013.0 |
| 20260507094518 | 54 | 22 | 1.0 | 5.0 | 0.03 | 2.25 | 0.31 | 97 | 1013.6 |
| 20260507094010 | 54 | 334 | 0.0 | 7.0 | 0.02 | 2.24 | 0.30 | 97 | 1013.4 |
| 20260507093509 | 54 | 273 | 0.0 | 7.0 | 0.02 | 2.23 | 0.29 | 98 | 1013.7 |
| 20260507093018 | 54 | 281 | 0.0 | 3.0 | 0.03 | 2.22 | 0.28 | 98 | 1013.5 |
| 20260507092512 | 54 | 262 | 0.0 | 2.0 | 0.06 | 2.22 | 0.28 | 98 | 1013.1 |
| 20260507092007 | 54 | 288 | 0.0 | 2.0 | 0.08 | 2.22 | 0.28 | 98 | 1013.0 |
| 20260507091508 | 54 | 283 | 0.0 | 4.0 | 0.10 | 2.22 | 0.28 | 98 | 1013.1 |
| 20260507091006 | 54 | 278 | 0.0 | 4.0 | 0.16 | 2.22 | 0.28 | 98 | 1013.3 |
| 20260507090505 | 54 | 252 | 0.0 | 0.0 | 0.22 | 2.22 | 0.28 | 98 | 1013.4 |
| 20260507090006 | 54 | 308 | 0.0 | 0.0 | 0.25 | 2.22 | 0.28 | 98 | 1013.6 |
| 20260507085505 | 54 | 276 | 0.0 | 2.0 | 0.25 | 2.22 | 0.28 | 98 | 1013.7 |
| 20260507085009 | 54 | 326 | 0.0 | 2.0 | 0.25 | 2.22 | 0.28 | 98 | 1013.6 |
| 20260507084507 | 54 | 277 | 0.0 | 3.0 | 0.25 | 2.22 | 0.28 | 97 | 1013.5 |
| 20260507084002 | 54 | 23 | 0.0 | 3.0 | 0.25 | 2.22 | 0.28 | 97 | 1013.0 |
| 20260507083510 | 54 | 310 | 0.0 | 3.0 | 0.24 | 2.21 | 0.27 | 97 | 1013.1 |
| 20260507083024 | 54 | 313 | 0.0 | 4.0 | 0.22 | 2.19 | 0.25 | 97 | 1012.9 |
| 20260507082503 | 54 | 79 | 1.0 | 4.0 | 0.19 | 2.16 | 0.22 | 97 | 1013.1 |
| 20260507082005 | 54 | 288 | 0.0 | 5.0 | 0.20 | 2.14 | 0.20 | 97 | 1014.3 |
| 20260507081519 | 54 | 304 | 1.0 | 6.0 | 0.18 | 2.11 | 0.18 | 97 | 1014.2 |
| 20260507081003 | 54 | 285 | 0.0 | 6.0 | 0.12 | 2.06 | 0.12 | 97 | 1013.5 |
| 20260507080504 | 54 | 39 | 0.0 | 6.0 | 0.06 | 2.00 | 0.06 | 97 | 1013.9 |
| 20260507080016 | 54 | 303 | 2.0 | 6.0 | 0.03 | 1.97 | 0.03 | 97 | 1013.9 |
| 20260507075508 | 54 | 305 | 0.0 | 2.0 | 0.03 | 1.97 | 0.03 | 97 | 1012.5 |
| 20260507075006 | 54 | 300 | 0.0 | 2.0 | 0.03 | 1.97 | 0.03 | 97 | 1012.4 |
| 20260507073503 | 54 | 333 | 0.0 | 3.0 | 0.03 | 1.97 | 0.03 | 97 | 1012.9 |
| 20260507073010 | 54 | 272 | 1.0 | 6.0 | 0.03 | 1.97 | 0.03 | 97 | 1013.0 |
| 20260507072508 | 54 | 331 | 1.0 | 6.0 | 0.03 | 1.97 | 0.03 | 97 | 1013.8 |
| 20260507072006 | 54 | 299 | 2.0 | 6.0 | 0.00 | 1.94 | 0.00 | 97 | 1014.7 |
| 20260507071505 | 54 | 276 | 1.0 | 5.0 | 0.00 | 1.94 | 0.00 | 97 | 1013.6 |
| 20260507070507 | 54 | 13 | 1.0 | 4.0 | 0.00 | 1.94 | 0.00 | 97 | 1012.8 |
| 20260507070008 | 54 | 280 | 1.0 | 4.0 | 0.00 | 1.94 | 0.00 | 97 | 1012.9 |
| 20260507065503 | 55 | 257 | 0.0 | 4.0 | 0.00 | 1.94 | 0.00 | 97 | 1013.5 |
| 20260507065007 | 55 | 259 | 0.0 | 7.0 | 0.00 | 1.94 | 0.00 | 97 | 1013.6 |
| 20260507064533 | 55 | 266 | 1.0 | 7.0 | 0.00 | 1.94 | 0.00 | 97 | 1013.6 |
| 20260507064004 | 55 | 20 | 0.0 | 4.0 | 0.00 | 1.94 | 0.00 | 97 | 1013.7 |
| 20260507063507 | 55 | 357 | 1.0 | 4.0 | 0.00 | 1.94 | 0.00 | 97 | 1013.7 |
| 20260507063027 | 55 | 32 | 0.0 | 5.0 | 0.00 | 1.94 | 0.00 | 97 | 1013.7 |
| 20260507062510 | 55 | 304 | 0.0 | 5.0 | 0.00 | 1.94 | 0.00 | 97 | 1013.1 |
| 20260507062004 | 55 | 352 | 0.0 | 5.0 | 0.00 | 1.94 | 0.00 | 97 | 1013.1 |
| 20260507061515 | 55 | 25 | 1.0 | 5.0 | 0.00 | 1.94 | 0.00 | 97 | 1013.8 |
| 20260507061009 | 55 | 262 | 0.0 | 4.0 | 0.00 | 1.94 | 0.00 | 97 | 1013.8 |
| 20260507060018 | 55 | 264 | 0.0 | 1.0 | 0.00 | 1.94 | 0.00 | 97 | 1014.0 |
| 20260507055507 | 55 | 293 | 0.0 | 5.0 | 0.00 | 1.94 | 0.00 | 97 | 1014.1 |
| 20260507055011 | 55 | 65 | 0.0 | 5.0 | 0.00 | 1.94 | 0.00 | 97 | 1014.1 |
| 20260507054003 | 55 | 16 | 0.0 | 9.0 | 0.00 | 1.94 | 0.00 | 97 | 1014.3 |
| 20260507053507 | 55 | 90 | 0.0 | 4.0 | 0.00 | 1.94 | 0.00 | 97 | 1014.4 |
| 20260507053008 | 55 | 28 | 0.0 | 3.0 | 0.00 | 1.94 | 0.00 | 97 | 1013.7 |
| 20260507052503 | 55 | 352 | 0.0 | 2.0 | 0.00 | 1.94 | 0.00 | 97 | 1013.9 |
| 20260507052007 | 55 | 266 | 0.0 | 1.0 | 0.00 | 1.94 | 0.00 | 97 | 1013.7 |
| 20260507051004 | 55 | 271 | 0.0 | 1.0 | 0.00 | 1.94 | 0.00 | 97 | 1013.9 |
| 20260507050504 | 55 | 285 | 0.0 | 3.0 | 0.00 | 1.94 | 0.00 | 97 | 1013.9 |
| 20260507050031 | 55 | 287 | 0.0 | 3.0 | 0.00 | 1.94 | 0.00 | 97 | 1014.1 |
| 20260507045509 | 56 | 354 | 0.0 | 3.0 | 0.00 | 1.94 | 1.94 | 97 | 1013.9 |
| 20260507044516 | 56 | 39 | 0.0 | 2.0 | 0.00 | 1.94 | 1.94 | 97 | 1014.3 |
| 20260507044007 | 56 | 304 | 0.0 | 3.0 | 0.00 | 1.94 | 1.94 | 97 | 1014.1 |
| 20260507043503 | 56 | 290 | 0.0 | 3.0 | 0.00 | 1.94 | 1.94 | 97 | 1014.1 |
| 20260507043013 | 56 | 4 | 0.0 | 2.0 | 0.00 | 1.94 | 1.94 | 97 | 1014.0 |
| 20260507042508 | 56 | 261 | 0.0 | 2.0 | 0.00 | 1.94 | 1.94 | 97 | 1014.2 |
| 20260507042011 | 56 | 274 | 0.0 | 1.0 | 0.00 | 1.94 | 1.94 | 97 | 1014.0 |
| 20260507041527 | 56 | 295 | 0.0 | 3.0 | 0.00 | 1.94 | 1.94 | 97 | 1013.5 |
| 20260507041004 | 56 | 1 | 0.0 | 3.0 | 0.00 | 1.94 | 1.94 | 97 | 1013.5 |
| 20260507040008 | 56 | 283 | 1.0 | 3.0 | 0.01 | 1.94 | 1.94 | 97 | 1014.2 |
| 20260507035505 | 56 | 25 | 0.0 | 2.0 | 0.01 | 1.94 | 1.94 | 97 | 1013.8 |
| 20260507035007 | 56 | 40 | 0.0 | 1.0 | 0.01 | 1.94 | 1.94 | 97 | 1013.7 |
| 20260507034523 | 56 | 333 | 0.0 | 2.0 | 0.01 | 1.94 | 1.94 | 97 | 1013.6 |
| 20260507033506 | 56 | 3 | 1.0 | 4.0 | 0.05 | 1.94 | 1.94 | 97 | 1013.9 |
| 20260507033027 | 56 | 281 | 0.0 | 4.0 | 0.05 | 1.94 | 1.94 | 97 | 1014.0 |
| 20260507032511 | 56 | 296 | 0.0 | 3.0 | 0.07 | 1.94 | 1.94 | 97 | 1014.6 |
| 20260507032008 | 56 | 303 | 0.0 | 3.0 | 0.08 | 1.94 | 1.94 | 97 | 1014.2 |
| 20260507031524 | 56 | 272 | 1.0 | 4.0 | 0.09 | 1.94 | 1.94 | 97 | 1013.7 |
| 20260507031014 | 57 | 329 | 1.0 | 4.0 | 0.09 | 1.94 | 1.94 | 97 | 1013.3 |
| 20260507030506 | 57 | 332 | 0.0 | 4.0 | 0.08 | 1.93 | 1.93 | 97 | 1013.5 |
| 20260507030021 | 57 | 278 | 1.0 | 4.0 | 0.08 | 1.93 | 1.93 | 97 | 1013.8 |
| 20260507024515 | 57 | 290 | 1.0 | 3.0 | 0.08 | 1.93 | 1.93 | 97 | 1013.7 |
| 20260507024005 | 57 | 26 | 0.0 | 3.0 | 0.08 | 1.93 | 1.93 | 97 | 1013.5 |
| 20260507023511 | 57 | 347 | 1.0 | 3.0 | 0.04 | 1.89 | 1.89 | 97 | 1013.7 |
| 20260507022511 | 58 | 274 | 0.0 | 2.0 | 0.02 | 1.87 | 1.87 | 97 | 1013.5 |
| 20260507022012 | 58 | 265 | 0.0 | 2.0 | 0.01 | 1.86 | 1.86 | 97 | 1013.7 |
| 20260507021524 | 58 | 264 | 0.0 | 1.0 | 0.00 | 1.85 | 1.85 | 97 | 1013.2 |
| 20260507021004 | 58 | 103 | 0.0 | 0.0 | 0.00 | 1.85 | 1.85 | 97 | 1013.4 |
| 20260507020024 | 58 | 293 | 0.0 | 1.0 | 0.00 | 1.85 | 1.85 | 97 | 1013.7 |
| 20260507015504 | 58 | 287 | 0.0 | 2.0 | 0.00 | 1.85 | 1.85 | 97 | 1013.5 |
| 20260507015009 | 58 | 82 | 0.0 | 2.0 | 0.00 | 1.85 | 1.85 | 97 | 1013.4 |
| 20260507013505 | 58 | 23 | 0.0 | 2.0 | 0.00 | 1.85 | 1.85 | 97 | 1013.1 |
| 20260507013023 | 58 | 280 | 0.0 | 0.0 | 0.00 | 1.85 | 1.85 | 97 | 1013.1 |
| 20260507012530 | 58 | 278 | 0.0 | 1.0 | 0.00 | 1.85 | 1.85 | 97 | 1013.1 |
| 20260507012011 | 58 | 11 | 0.0 | 2.0 | 0.00 | 1.85 | 1.85 | 97 | 1013.1 |
| 20260507011008 | 58 | 293 | 0.0 | 2.0 | 0.00 | 1.85 | 1.85 | 97 | 1013.2 |
| 20260507010507 | 58 | 85 | 0.0 | 2.0 | 0.00 | 1.85 | 1.85 | 97 | 1013.2 |
| 20260507010014 | 58 | 84 | 0.0 | 0.0 | 0.00 | 1.85 | 1.85 | 97 | 1013.2 |
| 20260507005505 | 59 | 23 | 0.0 | 0.0 | 0.00 | 1.85 | 1.85 | 97 | 1013.3 |
| 20260507004533 | 59 | 94 | 0.0 | 0.0 | 0.00 | 1.85 | 1.85 | 97 | 1013.8 |
| 20260507003510 | 59 | 122 | 0.0 | 0.0 | 0.01 | 1.85 | 1.85 | 97 | 1013.8 |
| 20260507002502 | 59 | 68 | 0.0 | 1.0 | 0.01 | 1.85 | 1.85 | 97 | 1013.6 |
| 20260507002007 | 59 | 276 | 0.0 | 1.0 | 0.02 | 1.85 | 1.85 | 97 | 1013.4 |
| 20260507001527 | 59 | 277 | 0.0 | 1.0 | 0.02 | 1.85 | 1.85 | 97 | 1013.5 |
| 20260507001011 | 60 | 13 | 0.0 | 4.0 | 0.02 | 1.85 | 1.85 | 97 | 1013.4 |
| 20260507000503 | 60 | 319 | 0.0 | 4.0 | 0.02 | 1.85 | 1.85 | 97 | 1013.4 |
| 20260507000026 | 60 | 281 | 0.0 | 6.0 | 0.02 | 1.85 | 1.85 | 97 | 1013.4 |
| 20260506235507 | 61 | 27 | 1.0 | 6.0 | 0.02 | 1.85 | 1.85 | 96 | 1013.4 |
| 20260506235009 | 61 | 323 | 1.0 | 3.0 | 0.02 | 1.85 | 1.85 | 97 | 1013.4 |
| 20260506233017 | 62 | 273 | 0.0 | 5.0 | 0.02 | 1.84 | 1.84 | 97 | 1013.7 |
| 20260506232507 | 62 | 286 | 0.0 | 5.0 | 0.04 | 1.84 | 1.84 | 97 | 1013.5 |
| 20260506232009 | 62 | 4 | 0.0 | 4.0 | 0.04 | 1.83 | 1.83 | 97 | 1013.1 |
| 20260506231007 | 63 | 300 | 0.0 | 6.0 | 0.05 | 1.83 | 1.83 | 97 | 1013.2 |
| 20260506230509 | 63 | 303 | 0.0 | 6.0 | 0.05 | 1.83 | 1.83 | 96 | 1013.4 |
| 20260506230007 | 63 | 291 | 2.0 | 6.0 | 0.05 | 1.83 | 1.83 | 96 | 1013.5 |
| 20260506225503 | 64 | 284 | 0.0 | 5.0 | 0.05 | 1.83 | 1.83 | 97 | 1013.3 |